Latest Weather Observations for Middle Percy Island

IDQ60801

Issued at 5:21 am EST Sunday 17 February 2019 (issued every 10 minutes, with the page automatically refreshed every 10 minutes)

About weather observations | Map of weather stations | Latest weather observations for QLD | Other Formats
Station Details ID: 200001 Name: MIDDLE PERCY ISLAND Lat: -21.66 Lon: 150.27 Height: 208.7 m
Data from the previous 72 hours. | See also: Recent months at Middle Percy Island
Date/Time
EST
Temp
°C
App
Temp
°C
Dew
Point
°C
Rel
Hum
%
Delta-T
°C
Wind Press
QNH
hPa
Press
MSL
hPa
Rain since
9am
mm
Dir  Spd
km/h
Gust
km/h
Spd
kts
Gust
kts
17/05:00am 23.9 22.0 19.4 76 2.9 SSE 28 39 15 21 1012.0 1010.7 6.0
17/04:30am 24.1 21.5 19.4 75 3.0 SSE 32 41 17 22 1011.7 1010.4 6.0
17/04:00am 24.1 22.7 20.4 80 2.4 SE 28 41 15 22 1011.4 1010.1 6.0
17/03:30am 24.2 23.2 20.5 80 2.4 SE 26 37 14 20 1011.4 1010.1 6.0
17/03:00am 24.4 23.1 20.7 80 2.4 SE 28 39 15 21 1011.5 1010.2 6.0
17/02:30am 24.4 23.6 20.9 81 2.3 SE 26 37 14 20 1011.8 1010.5 6.0
17/02:00am 24.4 23.2 20.9 81 2.3 SE 28 39 15 21 1012.1 1010.8 6.0
17/01:30am 24.4 23.6 20.9 81 2.3 SE 26 39 14 21 1012.4 1011.1 6.0
17/01:00am 24.6 21.7 20.1 76 2.9 SE 35 46 19 25 1012.7 1011.4 6.0
17/12:30am 24.7 22.5 20.4 77 2.8 SE 32 46 17 25 1013.2 1011.9 6.0
17/12:00am 24.6 23.4 20.9 80 2.4 SE 28 39 15 21 1013.6 1012.3 6.0
 
Date/Time
EST
Temp
°C
App
Temp
°C
Dew
Point
°C
Rel
Hum
%
Delta-T
°C
Wind Press
QNH
hPa
Press
MSL
hPa
Rain since
9am
mm
Dir  Spd
km/h
Gust
km/h
Spd
kts
Gust
kts
16/11:30pm 24.6 23.3 20.7 79 2.6 SE 28 39 15 21 1013.9 1012.6 6.0
16/11:00pm 24.7 23.0 20.6 78 2.7 SE 30 43 16 23 1014.0 1012.7 6.0
16/10:30pm 24.7 23.0 20.6 78 2.7 SE 30 39 16 21 1014.2 1012.9 6.0
16/10:00pm 24.8 22.9 20.9 79 2.6 SE 32 43 17 23 1014.0 1012.7 6.0
16/09:30pm 24.7 22.7 20.8 79 2.6 ESE 32 41 17 22 1014.0 1012.7 6.0
16/09:00pm 24.8 22.8 20.7 78 2.7 ESE 32 43 17 23 1013.9 1012.6 6.0
16/08:30pm 24.8 22.7 20.5 77 2.8 SE 32 43 17 23 1013.5 1012.2 6.0
16/08:00pm 24.8 22.7 20.5 77 2.8 SE 32 41 17 22 1013.3 1012.0 6.0
16/07:30pm 24.9 22.8 20.6 77 2.8 SE 32 44 17 24 1013.0 1011.7 6.0
16/07:00pm 24.9 23.2 20.6 77 2.8 ESE 30 43 16 23 1012.8 1011.5 6.0
16/06:30pm 24.8 23.2 20.7 78 2.7 ESE 30 43 16 23 1012.5 1011.2 6.0
16/06:00pm 24.9 24.3 21.2 80 2.5 ESE 26 39 14 21 1012.2 1010.9 6.0
16/05:30pm 24.8 24.3 21.5 82 2.2 SE 26 33 14 18 1012.1 1010.8 6.0
16/05:00pm 25.6 25.1 21.5 78 2.7 ESE 26 35 14 19 1012.3 1011.0 6.0
16/04:30pm 24.5 24.9 21.8 85 1.8 ESE 22 32 12 17 1012.4 1011.1 6.0
16/04:00pm 24.3 22.3 21.2 83 2.1 SSE 33 48 18 26 1012.5 1011.2 6.0
16/03:30pm 24.4 23.0 21.9 86 1.7 S 32 43 17 23 1012.7 1011.4 6.0
16/03:00pm 24.1 22.5 21.6 86 1.7 SSE 32 43 17 23 1012.8 1011.5 6.0
16/02:30pm 24.3 22.9 22.2 88 1.4 SSE 33 46 18 25 1013.1 1011.8 6.0
16/02:00pm 24.0 24.0 23.0 94 0.7 SSE 28 35 15 19 1013.4 1012.1 6.0
16/01:30pm 25.8 25.6 22.1 80 2.5 SE 26 37 14 20 1013.9 1012.6 5.2
16/01:00pm 25.1 25.3 22.8 87 1.6 SE 26 39 14 21 1014.3 1013.0 5.0
16/12:30pm 24.6 26.0 22.8 90 1.2 SE 20 28 11 15 1014.6 1013.4 5.0
16/12:00pm 23.8 25.4 22.8 94 0.7 ESE 19 26 10 14 1015.2 1014.0 5.0
16/11:30am 23.6 26.1 23.1 97 0.3 ESE 15 30 8 16 1015.6 1014.3 5.0
16/11:05am 23.3 22.4 21.4 89 1.3 SE 28 52 15 28 1015.9 1014.6 3.2
16/11:00am 24.4 24.5 21.9 86 1.7 SE 24 32 13 17 1015.8 1014.5 2.0
16/10:30am 24.2 23.8 22.3 89 1.3 SE 28 37 15 20 1015.8 1014.5 2.0
16/10:00am 23.7 21.6 22.3 92 0.9 SE 37 50 20 27 1015.9 1014.6 2.0
16/09:30am 23.6 22.1 22.8 95 0.5 ESE 35 46 19 25 1015.9 1014.6 2.0
16/09:08am 24.9 24.2 21.8 83 2.1 SSE 28 48 15 26 1015.7 1014.4 0.0
16/09:00am 25.0 23.4 21.9 83 2.1 SE 33 48 18 26 1015.7 1014.4 0.0
16/08:30am 25.4 24.1 22.5 84 2.0 SSE 33 46 18 25 1015.4 1014.1 0.0
16/08:00am 25.2 22.8 21.9 82 2.2 SSE 37 50 20 27 1015.1 1013.9 0.0
16/07:30am 25.0 22.8 22.1 84 2.0 SE 37 52 20 28 1014.9 1013.7 0.0
16/07:06am 24.9 23.4 22.0 84 1.9 SSE 33 52 18 28 1014.4 1013.1 0.0
16/07:00am 25.2 23.7 22.1 83 2.1 SSE 33 50 18 27 1014.4 1013.1 0.0
16/06:30am 24.9 23.9 22.6 87 1.6 SSE 32 44 17 24 1014.2 1012.9 0.0
16/06:00am 24.5 23.3 22.2 87 1.5 SSE 32 44 17 24 1014.1 1012.8 0.0
16/05:30am 24.8 23.9 22.1 85 1.8 SSE 30 48 16 26 1014.0 1012.7 0.0
16/05:28am 24.8 23.9 22.1 85 1.8 SSE 30 48 16 26 1013.9 1012.6 0.0
16/05:00am 24.9 23.5 22.0 84 1.9 SSE 32 46 17 25 1013.7 1012.4 0.0
16/04:30am 24.8 22.4 21.9 84 1.9 SSE 37 48 20 26 1013.5 1012.2 0.0
16/04:00am 25.0 22.8 22.1 84 2.0 SSE 37 48 20 26 1013.3 1012.0 0.0
16/03:38am 24.8 23.7 21.7 83 2.1 SE 30 52 16 28 1013.1 1011.8 0.0
16/03:30am 24.8 24.3 22.1 85 1.8 SE 28 43 15 23 1013.2 1011.9 0.0
16/03:00am 24.7 22.9 21.6 83 2.1 SE 33 46 18 25 1013.1 1011.8 0.0
16/02:30am 24.9 23.4 21.8 83 2.1 SE 32 46 17 25 1013.5 1012.2 0.0
16/02:11am 24.9 24.1 21.6 82 2.2 SE 28 46 15 25 1013.6 1012.3 0.0
16/02:00am 24.9 23.6 21.4 81 2.3 SE 30 44 16 24 1013.6 1012.3 0.0
16/01:30am 25.0 24.1 22.1 84 2.0 SE 30 46 16 25 1013.9 1012.6 0.0
16/01:25am 25.0 24.0 21.9 83 2.1 SE 30 50 16 27 1014.0 1012.7 0.0
16/01:00am 25.0 22.8 21.5 81 2.3 SE 35 50 19 27 1014.2 1012.9 0.0
16/12:30am 25.2 23.3 22.1 83 2.1 SE 35 48 19 26 1014.4 1013.1 0.0
16/12:00am 25.2 23.5 22.5 85 1.8 SE 35 48 19 26 1014.5 1013.2 0.0
 
Date/Time
EST
Temp
°C
App
Temp
°C
Dew
Point
°C
Rel
Hum
%
Delta-T
°C
Wind Press
QNH
hPa
Press
MSL
hPa
Rain since
9am
mm
Dir  Spd
km/h
Gust
km/h
Spd
kts
Gust
kts
15/11:30pm 25.4 22.0 22.1 82 2.2 SE 43 56 23 30 1014.6 1013.4 0.0
15/11:16pm 25.4 21.8 21.7 80 2.5 SE 43 63 23 34 1014.6 1013.4 0.0
15/11:00pm 25.3 23.9 23.0 87 1.6 SE 35 48 19 26 1014.7 1013.5 0.0
15/10:30pm 25.3 22.9 22.6 85 1.8 SE 39 52 21 28 1014.8 1013.6 0.0
15/10:00pm 25.4 22.3 22.7 85 1.8 SE 43 57 23 31 1014.8 1013.6 0.0
15/09:30pm 25.5 23.1 22.6 84 2.0 SE 39 61 21 33 1014.8 1013.6 0.0
15/09:28pm 25.5 23.6 22.8 85 1.8 SE 37 61 20 33 1014.8 1013.6 0.0
15/09:00pm 25.5 22.9 22.8 85 1.8 SE 41 56 22 30 1014.8 1013.6 0.0
15/08:30pm 25.1 22.7 23.2 89 1.3 SE 41 54 22 29 1014.8 1013.6 0.0
15/08:00pm 25.3 22.8 23.0 87 1.6 SE 41 54 22 29 1014.6 1013.4 0.0
15/07:30pm 25.1 24.7 23.0 88 1.4 SE 30 43 16 23 1014.5 1013.2 0.0
15/07:00pm 24.9 26.0 23.1 90 1.2 SE 22 33 12 18 1014.2 1012.9 0.0
15/06:30pm 25.8 25.7 22.3 81 2.4 SE 26 37 14 20 1014.0 1012.7 0.0
15/06:00pm 26.0 25.1 22.1 79 2.6 SE 30 43 16 23 1013.8 1012.5 0.0
15/05:30pm 26.3 25.8 22.2 78 2.8 SE 28 39 15 21 1013.6 1012.3 0.0
15/05:00pm 26.4 25.6 21.6 75 3.2 SE 28 39 15 21 1013.3 1012.0 0.0
15/04:30pm 26.6 25.6 22.0 76 3.1 SE 30 41 16 22 1013.3 1012.0 0.0
15/04:00pm 27.2 27.0 22.8 77 3.0 SE 28 39 15 21 1013.3 1012.0 0.0
15/03:30pm 27.2 27.3 23.2 79 2.7 SE 28 39 15 21 1013.3 1012.0 0.0
15/03:00pm 26.6 25.8 23.1 81 2.4 SSE 32 43 17 23 1013.4 1012.1 0.0
15/02:30pm 27.0 27.4 23.7 82 2.3 SSE 28 41 15 22 1013.7 1012.4 0.0
15/02:00pm 27.6 26.8 22.3 73 3.6 SE 30 41 16 22 1013.9 1012.6 0.0
15/01:30pm 27.5 26.1 22.2 73 3.6 SE 33 48 18 26 1014.1 1012.8 0.0
15/01:00pm 28.0 27.7 22.5 72 3.8 SE 28 41 15 22 1014.4 1013.1 0.0
15/12:42pm 28.4 27.9 22.9 72 3.8 SE 30 50 16 27 1014.6 1013.4 0.0
15/12:30pm 28.1 27.1 21.9 69 4.2 SE 30 44 16 24 1014.8 1013.6 0.0
15/12:00pm 28.4 28.7 22.9 72 3.8 SE 26 35 14 19 1015.4 1014.1 0.0
15/11:30am 27.0 26.2 21.7 73 3.6 SE 28 39 15 21 1015.5 1014.2 0.0
15/11:00am 27.8 26.2 21.6 69 4.2 SE 32 44 17 24 1015.7 1014.4 0.0
15/10:30am 27.8 26.7 21.8 70 4.1 SE 30 41 16 22 1015.9 1014.6 0.0
15/10:00am 28.1 28.5 23.2 74 3.4 SE 26 39 14 21 1016.0 1014.7 0.0
15/09:30am 27.6 27.5 22.3 73 3.6 SE 26 39 14 21 1015.8 1014.5 0.0
15/09:00am 27.0 27.3 22.2 75 3.3 SSE 24 33 13 18 1015.6 1014.3 0.0
15/08:30am 26.5 26.6 21.9 76 3.1 SE 24 37 13 20 1015.2 1014.0 0.0
15/08:00am 26.5 26.9 21.7 75 3.2 SE 22 32 12 17 1015.0 1013.8 0.0
15/07:30am 26.1 25.8 21.1 74 3.3 SE 24 37 13 20 1014.7 1013.5 0.0
15/07:00am 25.8 25.9 21.9 79 2.6 SE 24 33 13 18 1014.3 1013.0 0.0
15/06:30am 25.4 24.9 21.5 79 2.6 SE 26 37 14 20 1014.1 1012.8 0.0
15/06:00am 25.3 24.2 21.8 81 2.3 SE 30 37 16 20 1013.8 1012.5 0.0
15/05:30am 25.1 26.0 22.0 83 2.1 SE 20 28 11 15 1013.6 1012.3 0.0
15/05:00am 25.0 26.2 22.1 84 2.0 ESE 19 26 10 14 1013.2 1011.9 0.0
15/04:30am 25.0 25.8 21.7 82 2.2 ESE 20 30 11 16 1013.0 1011.7 0.0
15/04:00am 25.0 25.7 21.5 81 2.3 ESE 20 33 11 18 1013.0 1011.7 0.0
15/03:30am 25.0 26.2 21.5 81 2.3 ESE 17 26 9 14 1013.0 1011.7 0.0
15/03:00am 25.1 26.1 21.8 82 2.2 ESE 19 28 10 15 1013.0 1011.7 0.0
15/02:30am 25.2 25.5 21.5 80 2.5 ESE 22 33 12 18 1012.9 1011.6 0.0
15/02:00am 25.2 27.6 22.3 84 2.0 ESE 13 24 7 13 1013.2 1011.9 0.0
15/01:30am 25.2 26.3 21.9 82 2.2 ESE 19 30 10 16 1013.3 1012.0 0.0
15/01:00am 25.1 27.7 22.0 83 2.1 ESE 11 22 6 12 1013.5 1012.2 0.0
15/12:30am 25.2 28.4 22.3 84 2.0 ESE 9 20 5 11 1013.3 1012.0 0.0
15/12:00am 25.4 27.8 22.3 83 2.1 ESE 13 24 7 13 1013.4 1012.1 0.0
 
Date/Time
EST
Temp
°C
App
Temp
°C
Dew
Point
°C
Rel
Hum
%
Delta-T
°C
Wind Press
QNH
hPa
Press
MSL
hPa
Rain since
9am
mm
Dir  Spd
km/h
Gust
km/h
Spd
kts
Gust
kts
14/11:30pm 25.4 26.9 22.7 85 1.8 ESE 19 30 10 16 1013.5 1012.2 0.0
14/11:00pm 25.6 27.0 22.5 83 2.1 ESE 19 30 10 16 1013.6 1012.3 0.0
14/10:30pm 25.5 27.9 23.0 86 1.7 ESE 15 26 8 14 1013.3 1012.0 0.0
14/10:00pm 25.6 27.7 23.1 86 1.7 E 17 33 9 18 1013.0 1011.7 0.0
14/09:30pm 25.6 28.0 22.9 85 1.8 ESE 15 24 8 13 1013.0 1011.7 0.0
14/09:00pm 25.8 27.9 23.1 85 1.8 ESE 17 32 9 17 1013.1 1011.8 0.0
14/08:30pm 25.9 27.4 23.0 84 2.0 ESE 20 28 11 15 1013.3 1012.0 0.0
14/08:00pm 26.1 27.8 23.4 85 1.9 SE 20 33 11 18 1013.5 1012.2 0.0
14/07:30pm 26.1 28.0 23.4 85 1.9 ESE 19 28 10 15 1012.8 1011.5 0.0
14/07:00pm 25.9 29.1 23.0 84 2.0 ESE 11 20 6 11 1012.0 1010.7 0.0
14/06:30pm 26.2 29.6 23.3 84 2.0 ESE 11 19 6 10 1011.6 1010.3 0.0
14/06:00pm 26.7 30.1 23.4 82 2.3 ESE 11 19 6 10 1011.1 1009.8 0.0
14/05:30pm 26.7 29.0 23.4 82 2.3 ENE 17 26 9 14 1010.2 1008.9 0.0
14/05:00pm 27.1 29.1 23.6 81 2.4 ENE 19 28 10 15 1009.8 1008.5 0.0
14/04:30pm 27.6 30.0 23.6 79 2.8 ENE 17 28 9 15 1009.7 1008.4 0.0
14/04:00pm 27.6 30.9 23.8 80 2.6 ENE 13 20 7 11 1009.6 1008.3 0.0
14/03:30pm 27.6 29.4 23.2 77 3.0 ESE 19 30 10 16 1009.6 1008.3 0.0
14/03:00pm 28.5 31.2 24.1 77 3.1 SE 17 24 9 13 1009.7 1008.4 0.0
14/02:30pm 28.6 31.5 24.4 78 2.9 SE 17 22 9 12 1009.8 1008.5 0.0
14/02:00pm 28.8 31.9 24.8 79 2.8 ESE 17 24 9 13 1009.8 1008.5 0.0
14/01:30pm 28.5 31.1 23.9 76 3.2 SE 17 22 9 12 1009.9 1008.6 0.0
14/01:00pm 28.7 31.5 23.6 74 3.5 ESE 15 20 8 11 1010.2 1008.9 0.0
14/12:30pm 29.1 32.2 24.2 75 3.4 SE 15 20 8 11 1010.5 1009.2 0.0
14/12:00pm 28.3 31.1 23.7 76 3.2 SE 15 19 8 10 1010.6 1009.3 0.0
14/11:30am 28.5 31.8 24.5 79 2.8 SE 15 20 8 11 1010.8 1009.5 0.0
14/11:00am 28.9 32.0 24.2 76 3.3 SE 15 24 8 13 1010.7 1009.4 0.0
14/10:30am 28.8 31.7 22.5 68 4.3 ENE 11 20 6 11 1010.6 1009.3 0.0
14/10:00am 28.2 30.6 24.2 79 2.8 ESE 19 26 10 14 1010.7 1009.4 0.0
14/09:30am 28.6 32.6 24.4 78 2.9 E 11 20 6 11 1010.6 1009.3 0.0
14/09:00am 27.9 31.1 23.1 75 3.3 E 11 20 6 11 1010.2 1008.9 0.0
14/08:30am 27.2 29.9 23.4 80 2.6 E 15 20 8 11 1010.0 1008.7 0.0
14/08:00am 26.9 29.7 23.6 82 2.3 ENE 15 24 8 13 1009.9 1008.6 0.0
14/07:30am 26.2 28.5 23.5 85 1.9 ENE 17 24 9 13 1009.7 1008.4 0.0
14/07:00am 25.8 29.2 24.0 90 1.2 ENE 13 19 7 10 1009.5 1008.2 0.0
14/06:30am 25.2 27.7 23.8 92 1.0 ENE 17 20 9 11 1009.2 1007.9 0.0
14/06:00am 25.0 28.4 24.0 94 0.7 E 13 17 7 9 1008.8 1007.5 0.0
14/05:30am 25.0 28.4 24.0 94 0.7 E 13 17 7 9 1008.5 1007.2 0.0

Other Formats:

Comma delimited format used in spreadsheet applications
http://www.bom.gov.au/fwo/IDQ60801/IDQ60801.94372.axf

JavaScript Object Notation format (JSON) in row-major order
http://www.bom.gov.au/fwo/IDQ60801/IDQ60801.94372.json